powered by Meteolive.it
Dati meteo   Attuali  Passati Ogni 3 ore 7 Giorni 15 Giorni Avvisi Meteo Mappe meteo
Roma / Urbe, Italy
Alba: 7:28 AM UTC1
Tramonto: 4:38 PM UTC1
 Lat: 41.95N, Lon: 12.50E
ICAO Usato: LIRU
Condizioni Meteo Attuali Aggiornate: 13.12.2017 alle 17:50 LT
Quasi Sereno
Quasi Sereno
Sereno
Quasi Sereno
Temp: 12°C
Umidita': 71%
Direz/Vel. Vento: SW 05 KTS raffiche
Pressione: 1018 hPa
Punto di rugiada: 7°C
Temperatura percepita: 11°C
Visibilitą: >10 KM (ottima)
Temperatura percepita in
presenza di vento (Wind Chill)
:
11°C
T. max (ultime 24 ore): 15°C
T. min (ultime 24 ore): 12°C


METAR ORIGINALE
LIRU 131550Z 22005KT CAVOK 12/07 Q1018